Barnard, Indiana
Current Conditions -  °F | °C
As of 8:35 PM on Monday 20 Oct 2014 (Local Time) from K4I7 Reporting Station
Clear Clear  
Wind Chill: 16°   Ceiling: Unl
Heat Index: 16°   Visibility: 10mi
Dew Point:   Wind: 8mph
Humidity: 55%   Direction: 300°WNW
Pressure: 29.92"   Gusts: NA
Location:  39.821°N, 86.7929°W
Report Text: K4I7 210035Z AUTO 30007KT 10SM CLR 16/07 A2992 RMK AO2
Loading
Personal Weather Stations






























Interactive Weather Map
Tropical Storm Tracking
New forecast layout! Learn more

10-Day Weather Forecast

Advertisements
Track Severe Weather on mobile